createdAt,value
2023-04-09T00:01:18.889Z,8.60
2023-04-09T00:03:45.385Z,7.30
2023-04-09T00:06:11.910Z,7.85
2023-04-09T00:08:38.231Z,8.98
2023-04-09T00:11:05.132Z,9.10
2023-04-09T00:13:39.277Z,8.80
2023-04-09T00:16:07.425Z,8.10
2023-04-09T00:18:33.872Z,7.78
2023-04-09T00:21:00.292Z,8.77
2023-04-09T00:23:26.710Z,8.82
2023-04-09T00:25:53.302Z,10.95
2023-04-09T00:28:19.777Z,9.95
2023-04-09T00:30:46.306Z,8.85
2023-04-09T00:33:12.761Z,10.13
2023-04-09T00:35:39.130Z,12.63
2023-04-09T00:38:05.612Z,10.70
2023-04-09T00:40:32.038Z,11.02
2023-04-09T00:42:58.506Z,12.40
2023-04-09T00:45:24.949Z,10.32
2023-04-09T00:47:51.763Z,8.82
2023-04-09T00:50:18.312Z,10.45
2023-04-09T00:52:45.268Z,8.07
2023-04-09T00:55:12.603Z,9.15
2023-04-09T00:57:39.974Z,9.73
2023-04-09T01:00:08.631Z,10.15
2023-04-09T01:02:35.363Z,9.63
2023-04-09T01:05:01.983Z,9.18
2023-04-09T01:07:42.859Z,9.30
2023-04-09T01:10:35.552Z,10.52
2023-04-09T01:13:30.417Z,8.55
2023-04-09T01:15:59.436Z,9.32
2023-04-09T01:18:50.473Z,10.85
2023-04-09T01:21:23.245Z,9.98
2023-04-09T01:24:02.683Z,9.27
2023-04-09T01:26:47.107Z,9.48
2023-04-09T01:29:16.665Z,10.38
2023-04-09T01:31:45.219Z,9.43
2023-04-09T01:34:12.950Z,11.15
2023-04-09T01:36:41.381Z,9.70
2023-04-09T01:39:08.775Z,10.38
2023-04-09T01:41:37.287Z,11.55
2023-04-09T01:44:05.895Z,11.13
2023-04-09T01:46:34.019Z,12.57
2023-04-09T01:49:01.625Z,13.32
2023-04-09T01:51:29.221Z,14.10
2023-04-09T01:53:56.937Z,13.05
2023-04-09T01:56:23.240Z,13.88
2023-04-09T01:58:49.837Z,14.45
2023-04-09T02:01:18.136Z,14.57
2023-04-09T02:06:33.257Z,13.50
2023-04-09T02:09:01.520Z,14.18
2023-04-09T02:11:30.396Z,13.90
2023-04-09T02:13:58.059Z,16.90
2023-04-09T02:16:25.676Z,15.65
2023-04-09T02:18:55.712Z,14.50
2023-04-09T02:21:23.451Z,14.10
2023-04-09T02:23:50.412Z,14.98
2023-04-09T02:26:16.833Z,15.68
2023-04-09T02:28:43.424Z,15.23
2023-04-09T02:31:09.891Z,15.90
2023-04-09T02:33:36.209Z,14.55
2023-04-09T02:36:02.727Z,15.18
2023-04-09T02:38:29.105Z,16.25
2023-04-09T02:40:55.654Z,14.43
2023-04-09T02:43:22.096Z,15.80
2023-04-09T02:45:48.515Z,15.00
2023-04-09T02:48:15.106Z,15.23
2023-04-09T02:50:41.535Z,15.77
2023-04-09T02:53:08.017Z,13.63
2023-04-09T02:55:34.335Z,14.27
2023-04-09T02:58:00.760Z,13.10
2023-04-09T03:00:27.215Z,13.75
2023-04-09T03:02:53.822Z,13.68
2023-04-09T03:05:20.301Z,14.68
2023-04-09T03:07:46.685Z,13.05
2023-04-09T03:10:12.996Z,13.52
2023-04-09T03:12:39.378Z,11.48
2023-04-09T03:15:06.374Z,12.80
2023-04-09T03:17:32.731Z,15.20
2023-04-09T03:19:59.358Z,13.73
2023-04-09T03:22:25.787Z,14.90
2023-04-09T03:24:52.352Z,14.13
2023-04-09T03:27:18.662Z,11.38
2023-04-09T03:29:45.325Z,12.25
2023-04-09T03:32:11.722Z,15.60
2023-04-09T03:34:38.264Z,13.52
2023-04-09T03:37:04.639Z,12.95
2023-04-09T03:39:31.310Z,13.15
2023-04-09T03:41:58.292Z,13.38
2023-04-09T03:44:25.203Z,13.93
2023-04-09T03:46:51.680Z,14.07
2023-04-09T03:49:18.081Z,15.25
2023-04-09T03:51:44.524Z,13.93
2023-04-09T03:54:10.834Z,14.57
2023-04-09T03:56:37.240Z,14.68
2023-04-09T03:59:03.598Z,15.73
2023-04-09T04:01:30.056Z,14.50
2023-04-09T04:03:56.595Z,15.75
2023-04-09T04:06:23.176Z,16.10
2023-04-09T04:08:49.759Z,16.15
2023-04-09T04:11:16.291Z,16.05
2023-04-09T04:13:42.701Z,14.52
2023-04-09T04:16:09.983Z,16.45
2023-04-09T04:18:37.112Z,16.73
2023-04-09T04:21:03.747Z,16.20
2023-04-09T04:23:30.098Z,16.65
2023-04-09T04:25:57.687Z,15.93
2023-04-09T04:28:24.111Z,16.83
2023-04-09T04:30:50.576Z,16.55
2023-04-09T04:33:17.356Z,17.02
2023-04-09T04:35:43.772Z,15.90
2023-04-09T04:38:10.201Z,15.48
2023-04-09T04:40:36.634Z,16.23
2023-04-09T04:43:02.971Z,15.90
2023-04-09T04:45:29.650Z,15.00
2023-04-09T04:47:56.136Z,16.10
2023-04-09T04:50:22.583Z,14.70
2023-04-09T04:52:48.887Z,16.38
2023-04-09T04:55:15.367Z,15.65
2023-04-09T04:57:41.720Z,17.65
2023-04-09T05:00:08.799Z,17.95
2023-04-09T05:02:35.293Z,16.90
2023-04-09T05:05:01.714Z,17.52
2023-04-09T05:07:28.213Z,20.10
2023-04-09T05:09:54.556Z,18.92
2023-04-09T05:12:21.090Z,17.98
2023-04-09T05:14:47.571Z,18.67
2023-04-09T05:17:13.985Z,16.55
2023-04-09T05:19:40.346Z,18.77
2023-04-09T05:22:06.723Z,18.30
2023-04-09T05:24:33.395Z,17.85
2023-04-09T05:26:59.713Z,19.30
2023-04-09T05:29:26.012Z,18.45
2023-04-09T05:31:52.564Z,19.27
2023-04-09T05:34:18.926Z,21.40
2023-04-09T05:36:45.320Z,20.15
2023-04-09T05:39:11.684Z,20.60
2023-04-09T05:41:37.991Z,20.65
2023-04-09T05:44:04.642Z,18.80
2023-04-09T05:46:31.132Z,19.65
2023-04-09T05:48:57.675Z,21.17
2023-04-09T05:51:24.089Z,17.40
2023-04-09T05:53:51.444Z,18.33
2023-04-09T05:56:17.884Z,19.42
2023-04-09T05:58:44.180Z,19.20
2023-04-09T06:01:10.606Z,20.83
2023-04-09T06:03:37.224Z,21.65
2023-04-09T06:06:03.969Z,18.08
2023-04-09T06:08:30.643Z,21.23
2023-04-09T06:10:57.328Z,18.17
2023-04-09T06:13:23.699Z,19.85
2023-04-09T06:15:50.507Z,18.20
2023-04-09T06:18:16.830Z,17.50
2023-04-09T06:20:43.476Z,18.73
2023-04-09T06:23:09.901Z,19.92
2023-04-09T06:25:36.249Z,17.85
2023-04-09T06:28:02.733Z,17.60
2023-04-09T06:30:29.396Z,19.77
2023-04-09T06:32:55.830Z,20.77
2023-04-09T06:35:22.939Z,17.27
2023-04-09T06:37:49.695Z,19.02
2023-04-09T06:40:16.388Z,17.98
2023-04-09T06:42:43.052Z,18.88
2023-04-09T06:45:09.711Z,19.92
2023-04-09T06:47:36.497Z,17.50
2023-04-09T06:50:03.438Z,19.48
2023-04-09T06:52:30.058Z,17.55
2023-04-09T06:54:56.530Z,17.13
2023-04-09T06:57:22.921Z,18.83
2023-04-09T06:59:49.295Z,18.90
2023-04-09T07:02:15.877Z,18.73
2023-04-09T07:04:42.525Z,20.85
2023-04-09T07:07:09.014Z,20.17
2023-04-09T07:09:35.545Z,19.45
2023-04-09T07:12:01.863Z,17.95
2023-04-09T07:14:28.159Z,17.48
2023-04-09T07:16:54.580Z,16.02
2023-04-09T07:19:20.935Z,17.42
2023-04-09T07:21:47.430Z,18.92
2023-04-09T07:24:13.755Z,17.58
2023-04-09T07:26:40.151Z,16.67
2023-04-09T07:29:06.547Z,14.95
2023-04-09T07:31:35.291Z,14.88
2023-04-09T07:34:02.373Z,16.20
2023-04-09T07:36:28.914Z,15.15
2023-04-09T07:38:55.526Z,14.88
2023-04-09T07:41:22.028Z,14.35
2023-04-09T07:43:48.414Z,14.88
2023-04-09T07:46:21.112Z,14.85
2023-04-09T07:48:48.491Z,14.45
2023-04-09T07:51:15.320Z,14.63
2023-04-09T07:53:41.763Z,13.25
2023-04-09T07:56:08.074Z,13.88
2023-04-09T07:58:34.444Z,14.20
2023-04-09T08:01:00.844Z,12.38
2023-04-09T08:03:27.592Z,13.75
2023-04-09T08:05:54.462Z,11.55
2023-04-09T08:08:20.776Z,12.40
2023-04-09T08:10:47.214Z,11.13
2023-04-09T08:13:13.587Z,13.30
2023-04-09T08:15:40.035Z,12.02
2023-04-09T08:18:06.805Z,13.80
2023-04-09T08:20:33.242Z,12.55
2023-04-09T08:22:59.629Z,11.63
2023-04-09T08:25:26.293Z,12.30
2023-04-09T08:27:52.865Z,10.23
2023-04-09T08:30:19.329Z,13.27
2023-04-09T08:32:45.944Z,14.32
2023-04-09T08:35:12.353Z,12.27
2023-04-09T08:37:38.704Z,11.77
2023-04-09T08:40:05.566Z,11.95
2023-04-09T08:42:35.122Z,11.73
2023-04-09T08:45:04.389Z,12.80
2023-04-09T08:47:33.120Z,12.52
2023-04-09T08:49:59.555Z,11.40
2023-04-09T08:52:35.664Z,11.38
2023-04-09T08:55:02.070Z,9.77
2023-04-09T08:57:28.392Z,10.65
2023-04-09T08:59:54.972Z,11.50
2023-04-09T09:02:21.425Z,9.52
2023-04-09T09:04:48.918Z,11.40
2023-04-09T09:07:16.672Z,12.10
2023-04-09T09:10:00.606Z,11.18
2023-04-09T09:12:35.958Z,12.02
2023-04-09T09:15:03.032Z,10.95
2023-04-09T09:17:29.381Z,11.82
2023-04-09T09:19:55.994Z,11.35
2023-04-09T09:22:22.325Z,11.90
2023-04-09T09:24:50.817Z,12.35
2023-04-09T09:27:40.670Z,10.57
2023-04-09T09:30:07.562Z,11.02
2023-04-09T09:32:34.439Z,10.27
2023-04-09T09:35:06.532Z,10.05
2023-04-09T09:37:33.983Z,9.73
2023-04-09T09:40:01.126Z,10.80
2023-04-09T09:42:27.918Z,10.40
2023-04-09T09:44:54.955Z,9.18
2023-04-09T09:47:22.760Z,10.23
2023-04-09T09:49:49.780Z,9.95
2023-04-09T09:52:20.553Z,9.95
2023-04-09T09:54:51.544Z,10.35
2023-04-09T09:57:19.860Z,10.43
2023-04-09T10:00:05.816Z,10.57
2023-04-09T10:02:39.925Z,9.48
2023-04-09T10:05:08.741Z,9.07
2023-04-09T10:07:36.923Z,8.23
2023-04-09T10:10:05.406Z,9.90
2023-04-09T10:12:32.797Z,11.02
2023-04-09T10:15:00.003Z,10.00
2023-04-09T10:17:26.441Z,8.32
2023-04-09T10:20:10.745Z,9.18
2023-04-09T10:22:37.830Z,8.95
2023-04-09T10:25:05.324Z,9.23
2023-04-09T10:27:31.875Z,10.82
2023-04-09T10:29:58.242Z,8.73
2023-04-09T10:32:24.702Z,8.98
2023-04-09T10:34:51.131Z,9.90
2023-04-09T10:37:25.798Z,10.18
2023-04-09T10:39:53.461Z,9.65
2023-04-09T10:42:26.323Z,7.93
2023-04-09T10:45:04.770Z,10.00
2023-04-09T10:47:33.533Z,8.77
2023-04-09T10:50:14.952Z,8.52
2023-04-09T10:52:41.504Z,8.55
2023-04-09T10:55:08.459Z,8.50
2023-04-09T10:57:34.798Z,9.13
2023-04-09T11:00:01.215Z,8.95
2023-04-09T11:02:40.244Z,7.68
2023-04-09T11:05:43.352Z,10.20
2023-04-09T11:08:11.870Z,8.93
2023-04-09T11:10:40.294Z,8.82
2023-04-09T11:13:06.864Z,8.52
2023-04-09T11:15:35.660Z,8.20
2023-04-09T11:18:03.175Z,8.05
2023-04-09T11:20:29.576Z,7.93
2023-04-09T11:22:55.969Z,8.57
2023-04-09T11:25:27.541Z,9.02
2023-04-09T11:27:54.469Z,10.32
2023-04-09T11:30:21.117Z,9.07
2023-04-09T11:32:48.672Z,8.38
2023-04-09T11:35:21.013Z,7.60
2023-04-09T11:37:48.329Z,8.45
2023-04-09T11:40:23.795Z,8.98
2023-04-09T11:45:25.959Z,7.57
2023-04-09T11:47:52.867Z,7.60
2023-04-09T11:50:19.898Z,8.48
2023-04-09T11:52:46.457Z,7.45
2023-04-09T11:55:22.344Z,8.60
2023-04-09T11:57:48.650Z,7.95
2023-04-09T12:00:16.464Z,7.40
2023-04-09T12:02:46.118Z,8.13
2023-04-09T12:05:21.918Z,7.25
2023-04-09T12:07:55.430Z,8.02
2023-04-09T12:10:29.690Z,7.32
2023-04-09T12:13:05.886Z,7.65
2023-04-09T12:15:34.430Z,7.95
2023-04-09T12:18:01.704Z,8.48
2023-04-09T12:20:30.488Z,7.90
2023-04-09T12:22:58.091Z,7.57
2023-04-09T12:25:24.740Z,6.93
2023-04-09T12:27:51.104Z,7.45
2023-04-09T12:30:17.450Z,7.28
2023-04-09T12:32:43.982Z,7.13
2023-04-09T12:35:10.460Z,7.68
2023-04-09T12:37:37.029Z,7.38
2023-04-09T12:40:03.641Z,7.10
2023-04-09T12:42:30.030Z,8.32
2023-04-09T12:44:56.535Z,6.55
2023-04-09T12:47:22.864Z,7.03
2023-04-09T12:49:49.366Z,7.88
2023-04-09T12:52:16.254Z,6.28
2023-04-09T12:54:42.625Z,6.53
2023-04-09T12:57:08.918Z,7.40
2023-04-09T12:59:35.383Z,6.63
2023-04-09T13:02:01.842Z,7.53
2023-04-09T13:04:28.437Z,6.70
2023-04-09T13:06:54.951Z,6.70
2023-04-09T13:09:21.342Z,6.50
2023-04-09T13:11:47.740Z,5.82
2023-04-09T13:14:14.048Z,6.90
2023-04-09T13:16:40.963Z,5.53
2023-04-09T13:19:08.811Z,6.45
2023-04-09T13:21:35.525Z,5.75
2023-04-09T13:24:03.959Z,5.63
2023-04-09T13:26:31.332Z,5.20
2023-04-09T13:28:58.347Z,6.10
2023-04-09T13:31:24.958Z,6.97
2023-04-09T13:33:51.576Z,7.40
2023-04-09T13:36:18.126Z,6.80
2023-04-09T13:38:44.640Z,6.30
2023-04-09T13:41:10.973Z,6.93
2023-04-09T13:43:37.371Z,6.97
2023-04-09T13:46:04.133Z,7.05
2023-04-09T13:48:30.451Z,6.28
2023-04-09T13:50:57.000Z,6.50
2023-04-09T13:53:23.394Z,7.32
2023-04-09T13:55:49.776Z,7.28
2023-04-09T13:58:16.068Z,6.60
2023-04-09T14:00:42.545Z,6.97
2023-04-09T14:03:09.633Z,6.53
2023-04-09T14:05:36.196Z,6.47
2023-04-09T14:08:02.553Z,6.20
2023-04-09T14:10:29.091Z,6.30
2023-04-09T14:12:55.524Z,5.40
2023-04-09T14:15:22.030Z,5.90
2023-04-09T14:17:48.921Z,5.78
2023-04-09T14:20:15.418Z,5.28
2023-04-09T14:22:41.720Z,5.43
2023-04-09T14:25:08.617Z,5.40
2023-04-09T14:27:35.227Z,5.20
2023-04-09T14:30:01.654Z,5.05
2023-04-09T14:32:28.057Z,4.82
2023-04-09T14:34:54.384Z,4.07
2023-04-09T14:37:20.690Z,4.95
2023-04-09T14:39:47.031Z,5.68
2023-04-09T14:42:13.410Z,5.25
2023-04-09T14:44:39.780Z,5.88
2023-04-09T14:47:06.257Z,5.82
2023-04-09T14:49:32.717Z,6.47
2023-04-09T14:51:59.104Z,6.28
2023-04-09T14:54:25.599Z,6.35
2023-04-09T14:56:51.952Z,5.75
2023-04-09T14:59:18.434Z,5.60
2023-04-09T15:01:44.873Z,5.47
2023-04-09T15:04:11.552Z,5.70
2023-04-09T15:06:38.031Z,5.18
2023-04-09T15:09:04.323Z,5.88
2023-04-09T15:11:30.634Z,5.03
2023-04-09T15:13:57.110Z,5.30
2023-04-09T15:16:25.037Z,5.70
2023-04-09T15:18:51.760Z,5.50
2023-04-09T15:21:18.702Z,5.53
2023-04-09T15:23:44.996Z,5.68
2023-04-09T15:26:11.393Z,4.63
2023-04-09T15:28:37.739Z,6.78
2023-04-09T15:31:04.247Z,5.40
2023-04-09T15:33:30.742Z,5.03
2023-04-09T15:35:57.102Z,4.85
2023-04-09T15:38:23.402Z,4.38
2023-04-09T15:40:49.924Z,5.28
2023-04-09T15:43:16.309Z,5.47
2023-04-09T15:45:43.048Z,5.38
2023-04-09T15:48:09.719Z,5.47
2023-04-09T15:50:36.090Z,5.93
2023-04-09T15:53:02.532Z,5.90
2023-04-09T15:55:28.912Z,5.80
2023-04-09T15:57:55.243Z,6.20
2023-04-09T16:00:21.750Z,5.82
2023-04-09T16:02:48.127Z,5.90
2023-04-09T16:05:14.456Z,5.30
2023-04-09T16:07:40.827Z,6.50
2023-04-09T16:10:08.026Z,7.00
2023-04-09T16:12:34.421Z,5.13
2023-04-09T16:15:01.140Z,5.13
2023-04-09T16:17:27.703Z,5.28
2023-04-09T16:19:56.388Z,5.15
2023-04-09T16:22:24.573Z,5.15
2023-04-09T16:24:50.951Z,5.47
2023-04-09T16:27:17.310Z,5.20
2023-04-09T16:29:43.630Z,5.53
2023-04-09T16:32:10.073Z,5.30
2023-04-09T16:34:36.426Z,6.47
2023-04-09T16:37:02.932Z,7.15
2023-04-09T16:39:29.554Z,6.63
2023-04-09T16:41:56.082Z,7.57
2023-04-09T16:44:22.736Z,7.03
2023-04-09T16:46:49.282Z,6.57
2023-04-09T16:49:15.803Z,6.15
2023-04-09T16:51:42.184Z,6.03
2023-04-09T16:54:08.564Z,6.43
2023-04-09T16:56:34.975Z,6.63
2023-04-09T16:59:01.386Z,7.13
2023-04-09T17:01:27.867Z,6.68
2023-04-09T17:03:54.510Z,7.65
2023-04-09T17:06:21.318Z,7.75
2023-04-09T17:08:47.735Z,7.18
2023-04-09T17:11:17.404Z,6.70
2023-04-09T17:13:43.903Z,7.03
2023-04-09T17:16:10.420Z,7.05
2023-04-09T17:18:37.085Z,7.03
2023-04-09T17:21:03.867Z,7.43
2023-04-09T17:23:30.426Z,7.95
2023-04-09T17:25:57.093Z,7.63
2023-04-09T17:28:23.390Z,7.30
2023-04-09T17:30:49.782Z,8.05
2023-04-09T17:33:16.218Z,7.60
2023-04-09T17:35:42.568Z,7.85
2023-04-09T17:38:09.022Z,7.35
2023-04-09T17:40:35.318Z,7.78
2023-04-09T17:43:01.715Z,7.75
2023-04-09T17:45:28.007Z,8.00
2023-04-09T17:47:54.541Z,8.27
2023-04-09T17:50:21.007Z,6.80
2023-04-09T17:52:47.305Z,7.97
2023-04-09T17:55:13.925Z,7.35
2023-04-09T17:57:40.774Z,6.70
2023-04-09T18:00:08.244Z,5.93
2023-04-09T18:02:35.333Z,6.47
2023-04-09T18:05:03.516Z,7.07
2023-04-09T18:07:30.623Z,7.88
2023-04-09T18:09:57.488Z,7.07
2023-04-09T18:12:23.821Z,8.35
2023-04-09T18:14:50.232Z,8.10
2023-04-09T18:17:17.333Z,7.30
2023-04-09T18:19:43.927Z,8.13
2023-04-09T18:22:10.364Z,10.75
2023-04-09T18:24:36.788Z,11.52
2023-04-09T18:27:03.197Z,10.02
2023-04-09T18:29:31.109Z,8.82
2023-04-09T18:31:58.010Z,10.60
2023-04-09T18:34:25.785Z,9.77
2023-04-09T18:36:53.962Z,9.02
2023-04-09T18:39:20.534Z,11.05
2023-04-09T18:41:46.840Z,11.40
2023-04-09T18:44:13.188Z,11.32
2023-04-09T18:46:39.597Z,10.10
2023-04-09T18:49:05.924Z,9.05
2023-04-09T18:51:32.343Z,10.20
2023-04-09T18:53:58.937Z,8.73
2023-04-09T18:56:25.287Z,10.27
2023-04-09T18:58:52.079Z,9.23
2023-04-09T19:01:19.210Z,9.88
2023-04-09T19:03:46.681Z,10.68
2023-04-09T19:06:18.778Z,11.98
2023-04-09T19:08:45.692Z,13.40
2023-04-09T19:11:12.797Z,14.18
2023-04-09T19:13:39.180Z,14.95
2023-04-09T19:16:06.772Z,15.43
2023-04-09T19:18:34.076Z,14.98
2023-04-09T19:21:03.884Z,13.60
2023-04-09T19:23:30.232Z,13.57
2023-04-09T19:25:56.785Z,14.35
2023-04-09T19:28:23.587Z,13.00
2023-04-09T19:30:51.468Z,14.25
2023-04-09T19:33:26.245Z,13.73
2023-04-09T19:35:55.646Z,14.20
2023-04-09T19:38:22.274Z,12.05
2023-04-09T19:40:48.953Z,11.75
2023-04-09T19:43:15.352Z,12.75
2023-04-09T19:45:41.777Z,10.27
2023-04-09T19:48:08.244Z,10.70
2023-04-09T19:50:38.786Z,12.07
2023-04-09T19:53:05.823Z,11.10
2023-04-09T19:55:35.664Z,10.95
2023-04-09T19:58:02.511Z,12.15
2023-04-09T20:00:29.225Z,12.45
2023-04-09T20:02:56.017Z,12.80
2023-04-09T20:05:22.644Z,12.32
2023-04-09T20:07:49.698Z,12.10
2023-04-09T20:10:16.376Z,12.27
2023-04-09T20:12:46.968Z,11.63
2023-04-09T20:15:13.376Z,12.18
2023-04-09T20:17:39.816Z,12.50
2023-04-09T20:20:07.214Z,12.77
2023-04-09T20:22:33.759Z,10.98
2023-04-09T20:25:00.162Z,12.82
2023-04-09T20:27:26.835Z,10.73
2023-04-09T20:29:53.130Z,10.75
2023-04-09T20:32:20.211Z,11.63
2023-04-09T20:34:46.682Z,11.38
2023-04-09T20:37:13.379Z,10.68
2023-04-09T20:39:39.670Z,12.32
2023-04-09T20:42:06.008Z,10.52
2023-04-09T20:44:32.395Z,12.95
2023-04-09T20:46:58.721Z,11.50
2023-04-09T20:49:25.475Z,10.15
2023-04-09T20:51:51.868Z,10.38
2023-04-09T20:54:18.285Z,10.70
2023-04-09T20:56:44.740Z,10.45
2023-04-09T20:59:11.169Z,10.00
2023-04-09T21:01:37.609Z,11.15
2023-04-09T21:04:04.348Z,9.73
2023-04-09T21:06:30.710Z,9.75
2023-04-09T21:08:58.597Z,10.27
2023-04-09T21:11:26.004Z,11.23
2023-04-09T21:13:54.885Z,11.30
2023-04-09T21:16:21.829Z,11.93
2023-04-09T21:18:48.259Z,10.60
2023-04-09T21:21:14.647Z,11.00
2023-04-09T21:23:40.983Z,11.23
2023-04-09T21:26:07.699Z,10.70
2023-04-09T21:28:34.118Z,9.85
2023-04-09T21:31:00.481Z,11.32
2023-04-09T21:33:28.519Z,11.00
2023-04-09T21:35:56.425Z,10.77
2023-04-09T21:38:22.796Z,9.45
2023-04-09T21:40:49.231Z,11.93
2023-04-09T21:43:15.907Z,11.93
2023-04-09T21:45:42.360Z,11.43
2023-04-09T21:48:08.683Z,10.02
2023-04-09T21:50:35.202Z,9.32
2023-04-09T21:53:01.731Z,9.50
2023-04-09T21:55:28.331Z,11.57
2023-04-09T21:57:54.632Z,9.15
2023-04-09T22:00:20.921Z,9.70
2023-04-09T22:02:47.442Z,9.43
2023-04-09T22:05:13.907Z,10.15
2023-04-09T22:07:42.086Z,9.75
2023-04-09T22:10:09.007Z,9.85
2023-04-09T22:12:35.426Z,9.10
2023-04-09T22:15:03.240Z,9.85
2023-04-09T22:17:29.675Z,9.20
2023-04-09T22:19:56.119Z,11.07
2023-04-09T22:22:22.482Z,9.88
2023-04-09T22:24:49.061Z,8.82
2023-04-09T22:27:15.510Z,10.20
2023-04-09T22:29:41.934Z,8.95
2023-04-09T22:32:09.311Z,11.20
2023-04-09T22:34:35.835Z,10.48
2023-04-09T22:37:02.212Z,8.85
2023-04-09T22:39:28.739Z,10.05
2023-04-09T22:41:55.383Z,10.15
2023-04-09T22:44:21.735Z,10.10
2023-04-09T22:46:48.292Z,10.05
2023-04-09T22:49:14.666Z,10.82
2023-04-09T22:51:41.913Z,11.02
2023-04-09T22:54:08.539Z,9.60
2023-04-09T22:56:35.642Z,11.02
2023-04-09T22:59:02.318Z,9.75
2023-04-09T23:01:29.075Z,10.95
2023-04-09T23:03:55.402Z,9.40
2023-04-09T23:06:21.959Z,11.60
2023-04-09T23:08:48.522Z,9.70
2023-04-09T23:11:14.828Z,11.13
2023-04-09T23:13:41.309Z,10.77
2023-04-09T23:16:09.101Z,10.15
2023-04-09T23:18:35.867Z,9.50
2023-04-09T23:21:09.036Z,10.65
2023-04-09T23:23:36.620Z,9.23
2023-04-09T23:26:03.886Z,10.30
2023-04-09T23:28:30.742Z,11.93
2023-04-09T23:30:57.263Z,9.48
2023-04-09T23:33:23.913Z,10.25
2023-04-09T23:35:50.864Z,11.52
2023-04-09T23:38:17.374Z,9.90
2023-04-09T23:40:43.962Z,10.23
2023-04-09T23:43:10.382Z,9.50
2023-04-09T23:45:36.692Z,9.18
2023-04-09T23:48:04.788Z,9.07
2023-04-09T23:50:31.651Z,9.27
2023-04-09T23:52:58.028Z,8.77
2023-04-09T23:55:24.464Z,10.18
2023-04-09T23:57:50.879Z,10.20
